Time;durP1;ratioP1;P1;durP2;ratioP2;P2;SDS_P1;SDS_P2;PMS_P1;PMS_P2;Temp;Humidity;BMP_temperature;BMP_pressure;BME280_temperature;BME280_humidity;BME280_pressure;Samples;Min_cycle;Max_cycle;Signal;HPM_P1;HPM_P2
2022/05/16 00:00:20;;;;;;;12.95;2.60;;;18.30;91.90;;;;;;4967193;28;20290;-62
2022/05/16 00:02:48;;;;;;;5.97;2.47;;;18.30;92.20;;;;;;4971273;28;20235;-63
2022/05/16 00:05:17;;;;;;;1.70;1.60;;;18.20;92.30;;;;;;4972420;28;20608;-63
2022/05/16 00:07:46;;;;;;;3.05;2.20;;;18.20;92.20;;;;;;4972647;28;20287;-63
2022/05/16 00:10:14;;;;;;;3.80;2.17;;;18.20;92.20;;;;;;4969222;28;20581;-64
2022/05/16 00:12:44;;;;;;;2.88;1.80;;;18.20;92.60;;;;;;4972940;28;20245;-64
2022/05/16 00:15:14;;;;;;;2.97;1.95;;;18.10;92.70;;;;;;4971863;28;20306;-63
2022/05/16 00:17:43;;;;;;;4.25;2.38;;;18.10;92.90;;;;;;4969898;28;20410;-63
2022/05/16 00:20:11;;;;;;;3.65;2.30;;;18.10;92.60;;;;;;4972655;28;20607;-64
2022/05/16 00:22:39;;;;;;;3.70;2.40;;;18.00;92.80;;;;;;4972278;28;20207;-64
2022/05/16 00:25:15;;;;;;;4.55;2.40;;;17.90;92.90;;;;;;4970742;28;20227;-63
2022/05/16 00:27:45;;;;;;;3.58;1.90;;;17.80;93.30;;;;;;4972416;28;20316;-63
2022/05/16 00:30:17;;;;;;;4.75;2.65;;;17.80;93.30;;;;;;4969501;28;20204;-63
2022/05/16 00:32:48;;;;;;;4.18;2.33;;;17.80;93.60;;;;;;4965256;28;20242;-62
2022/05/16 00:35:17;;;;;;;2.10;1.90;;;17.70;93.70;;;;;;4965204;28;20353;-63
2022/05/16 00:37:46;;;;;;;5.00;2.20;;;17.60;94.00;;;;;;4970811;28;20235;-62
2022/05/16 00:40:15;;;;;;;2.00;1.90;;;17.50;94.30;;;;;;4973028;28;20655;-63
2022/05/16 00:42:45;;;;;;;3.15;2.20;;;17.40;94.60;;;;;;4971806;28;20748;-63
2022/05/16 00:45:16;;;;;;;3.35;2.30;;;17.40;94.80;;;;;;4970768;28;20209;-62
2022/05/16 00:47:44;;;;;;;3.28;2.22;;;17.30;95.00;;;;;;4970215;28;20273;-63
2022/05/16 00:50:13;;;;;;;4.85;2.50;;;17.20;95.20;;;;;;4970621;28;20241;-62
2022/05/16 00:52:45;;;;;;;4.30;2.33;;;17.20;95.50;;;;;;4970532;28;20664;-62
2022/05/16 00:55:17;;;;;;;3.55;2.25;;;17.10;95.80;;;;;;4971180;28;20215;-62
2022/05/16 00:57:50;;;;;;;5.05;2.75;;;17.10;95.80;;;;;;4970571;28;20252;-63
2022/05/16 01:00:21;;;;;;;4.90;2.25;;;17.10;96.00;;;;;;4965771;28;20206;-62
2022/05/16 01:05:37;;;;;;;4.53;2.28;;;17.00;96.30;;;;;;4959354;28;20195;-62
2022/05/16 01:08:08;;;;;;;6.65;2.50;;;17.00;96.50;;;;;;4958087;28;20219;-62
2022/05/16 01:10:37;;;;;;;5.28;2.17;;;17.00;96.30;;;;;;4971093;28;20258;-63
2022/05/16 01:13:07;;;;;;;5.65;3.13;;;17.00;96.40;;;;;;4967346;28;20203;-62
2022/05/16 01:15:38;;;;;;;2.85;2.00;;;17.00;96.50;;;;;;4970958;28;20314;-62
2022/05/16 01:18:08;;;;;;;3.45;2.42;;;17.00;96.40;;;;;;4970664;28;20226;-61
2022/05/16 01:21:07;;;;;;;4.53;2.60;;;17.00;96.30;;;;;;4969682;28;20230;-62
2022/05/16 01:23:39;;;;;;;6.63;2.20;;;17.00;96.30;;;;;;4970039;28;20233;-62
2022/05/16 01:26:12;;;;;;;4.82;2.42;;;17.00;96.30;;;;;;4971554;28;20278;-62
2022/05/16 01:28:40;;;;;;;5.38;2.35;;;17.10;96.30;;;;;;4966224;28;20219;-63
2022/05/16 01:31:08;;;;;;;4.93;2.30;;;17.00;96.40;;;;;;4967192;28;20324;-63
2022/05/16 01:33:36;;;;;;;7.18;2.60;;;17.10;96.30;;;;;;4968839;28;20299;-62
2022/05/16 01:36:04;;;;;;;5.15;2.42;;;17.10;96.60;;;;;;4968248;28;20301;-62
2022/05/16 01:38:33;;;;;;;5.22;2.30;;;17.00;96.40;;;;;;4970464;28;20207;-62
2022/05/16 01:41:05;;;;;;;2.50;2.00;;;17.00;96.40;;;;;;4970385;28;20225;-62
2022/05/16 01:43:35;;;;;;;3.67;2.42;;;17.10;96.40;;;;;;4970625;28;20857;-62
2022/05/16 01:46:04;;;;;;;4.55;2.15;;;17.10;96.50;;;;;;4971532;28;20238;-62
2022/05/16 01:48:32;;;;;;;5.20;3.05;;;17.10;96.50;;;;;;4970129;28;20277;-62
2022/05/16 01:51:02;;;;;;;4.40;2.63;;;17.10;96.40;;;;;;4971517;28;20286;-62
2022/05/16 01:53:30;;;;;;;4.93;2.22;;;17.10;96.40;;;;;;4969720;28;20687;-62
2022/05/16 01:55:58;;;;;;;3.20;1.80;;;17.20;96.70;;;;;;4969404;28;20222;-62
2022/05/16 01:58:27;;;;;;;5.18;2.42;;;17.20;96.70;;;;;;4971956;28;20285;-63
2022/05/16 02:00:56;;;;;;;3.33;2.55;;;17.20;96.60;;;;;;4969129;28;20226;-62
2022/05/16 02:03:24;;;;;;;3.13;2.50;;;17.20;96.60;;;;;;4971521;28;20218;-62
2022/05/16 02:05:52;;;;;;;5.15;3.05;;;17.20;96.80;;;;;;4972351;28;20317;-63
2022/05/16 02:08:20;;;;;;;7.53;2.75;;;17.20;96.80;;;;;;4975706;28;20322;-63
2022/05/16 02:10:48;;;;;;;3.60;2.47;;;17.20;96.70;;;;;;4976058;28;20285;-62
2022/05/16 02:13:17;;;;;;;4.47;2.45;;;17.10;97.20;;;;;;4975418;28;20214;-63
2022/05/16 02:15:47;;;;;;;3.75;2.85;;;17.10;97.40;;;;;;4975124;28;20218;-62
2022/05/16 02:18:17;;;;;;;3.83;2.10;;;17.10;97.10;;;;;;4972734;28;20750;-63
2022/05/16 02:20:46;;;;;;;5.70;3.22;;;17.10;96.80;;;;;;4973986;28;20199;-63
2022/05/16 02:25:59;;;;;;;3.33;2.22;;;17.10;97.20;;;;;;4974742;28;20241;-62
2022/05/16 02:28:27;;;;;;;6.15;2.65;;;17.10;97.00;;;;;;4971949;28;20233;-62
2022/05/16 02:30:57;;;;;;;3.20;2.65;;;17.10;96.70;;;;;;4967685;28;20198;-63
2022/05/16 02:33:25;;;;;;;10.07;2.60;;;17.20;96.80;;;;;;4971950;28;20207;-61
2022/05/16 02:35:53;;;;;;;3.00;2.80;;;17.20;96.80;;;;;;4974187;28;20214;-63
2022/05/16 02:38:21;;;;;;;6.32;2.55;;;17.20;97.00;;;;;;4975458;28;20804;-63
2022/05/16 02:40:49;;;;;;;6.20;3.40;;;17.20;97.30;;;;;;4974541;28;20199;-64
2022/05/16 02:43:17;;;;;;;3.90;2.60;;;17.40;97.70;;;;;;4973563;28;20849;-63
2022/05/16 02:45:45;;;;;;;5.10;2.78;;;17.40;97.00;;;;;;4969157;28;20274;-63
2022/05/16 02:48:15;;;;;;;2.90;2.60;;;17.50;96.80;;;;;;4972926;28;20219;-63
2022/05/16 02:50:42;;;;;;;4.78;2.10;;;17.40;96.80;;;;;;4973634;28;20257;-63
2022/05/16 02:53:10;;;;;;;6.28;3.35;;;17.40;97.30;;;;;;4972968;28;20277;-63
2022/05/16 02:55:39;;;;;;;3.08;2.78;;;17.30;97.30;;;;;;4974446;28;20222;-62
2022/05/16 02:58:08;;;;;;;5.68;2.33;;;17.40;96.90;;;;;;4996915;23;20280;-72
2022/05/16 03:00:36;;;;;;;2.83;2.15;;;17.40;97.00;;;;;;4976351;28;20591;-72
2022/05/16 03:03:04;;;;;;;4.68;2.80;;;17.40;96.90;;;;;;4970350;28;20214;-72
2022/05/16 03:05:33;;;;;;;2.78;2.30;;;17.30;96.90;;;;;;4971510;28;20212;-71
2022/05/16 03:08:01;;;;;;;5.25;2.15;;;17.30;97.10;;;;;;4970792;28;20244;-72
2022/05/16 03:10:29;;;;;;;2.58;2.10;;;17.30;97.30;;;;;;4971218;28;20280;-69
2022/05/16 03:12:57;;;;;;;4.80;2.70;;;17.30;97.50;;;;;;4970001;28;20319;-72
2022/05/16 03:15:29;;;;;;;3.65;2.55;;;17.30;97.40;;;;;;4972482;28;20293;-73
2022/05/16 03:17:57;;;;;;;4.32;2.90;;;17.40;97.30;;;;;;4969926;28;20694;-71
2022/05/16 03:20:25;;;;;;;3.17;2.50;;;17.30;97.10;;;;;;4977487;28;20287;-72
2022/05/16 03:22:54;;;;;;;3.90;2.45;;;17.40;97.60;;;;;;4979489;28;20240;-69
2022/05/16 03:25:22;;;;;;;2.95;2.40;;;17.40;97.50;;;;;;4970688;28;20282;-72
2022/05/16 03:27:50;;;;;;;4.93;3.05;;;17.30;97.30;;;;;;4971235;28;20309;-71
2022/05/16 03:30:18;;;;;;;7.05;2.92;;;17.30;97.40;;;;;;4980177;28;21208;-72
2022/05/16 03:32:46;;;;;;;5.57;2.55;;;17.30;97.10;;;;;;4976564;28;20730;-73
2022/05/16 03:35:14;;;;;;;3.88;2.40;;;17.40;97.40;;;;;;4974139;28;20234;-70
2022/05/16 03:37:42;;;;;;;4.72;2.85;;;17.50;98.10;;;;;;4971226;28;20225;-72
2022/05/16 03:42:59;;;;;;;5.35;2.70;;;17.40;97.60;;;;;;4969842;28;20320;-70
2022/05/16 03:45:27;;;;;;;3.13;2.47;;;17.30;97.80;;;;;;4974389;28;20881;-71
2022/05/16 03:47:55;;;;;;;3.83;2.97;;;17.30;97.80;;;;;;4975537;28;20280;-70
2022/05/16 03:50:23;;;;;;;3.97;2.97;;;17.20;98.00;;;;;;4976757;28;20284;-71
2022/05/16 03:52:51;;;;;;;4.60;2.80;;;17.20;98.10;;;;;;4973753;28;20663;-72
2022/05/16 03:55:20;;;;;;;4.25;2.38;;;17.10;98.40;;;;;;4969417;28;20226;-71
2022/05/16 03:57:49;;;;;;;3.67;2.78;;;17.10;98.70;;;;;;4972815;28;20254;-72
2022/05/16 04:00:17;;;;;;;3.08;2.75;;;17.00;98.80;;;;;;4969353;28;20257;-70
2022/05/16 04:02:46;;;;;;;6.38;2.72;;;17.10;99.10;;;;;;4968442;28;20306;-70
2022/05/16 04:05:18;;;;;;;9.15;2.92;;;17.10;98.90;;;;;;4970296;28;20241;-72
2022/05/16 04:07:48;;;;;;;6.55;3.25;;;17.20;98.80;;;;;;4969481;28;20214;-72
2022/05/16 04:10:16;;;;;;;4.47;2.15;;;17.20;98.70;;;;;;4980800;28;20221;-72
2022/05/16 04:12:45;;;;;;;5.45;2.85;;;17.30;99.30;;;;;;4969027;28;20301;-72
2022/05/16 04:15:14;;;;;;;5.28;2.80;;;17.40;98.50;;;;;;4972840;28;22367;-70
2022/05/16 04:17:43;;;;;;;4.35;2.85;;;17.50;98.10;;;;;;4969488;28;20758;-72
2022/05/16 04:20:13;;;;;;;4.05;3.35;;;17.50;98.90;;;;;;4983172;28;20201;-72
2022/05/16 04:22:41;;;;;;;3.28;2.45;;;17.50;98.40;;;;;;4998426;28;20226;-71
2022/05/16 04:25:10;;;;;;;6.32;2.40;;;17.50;99.10;;;;;;4995655;28;20259;-72
2022/05/16 04:27:39;;;;;;;6.00;3.17;;;17.50;99.00;;;;;;4998144;28;20257;-72
2022/05/16 04:30:10;;;;;;;2.88;2.53;;;17.60;98.70;;;;;;4987701;28;20269;-72
2022/05/16 04:32:38;;;;;;;5.63;2.60;;;17.50;99.00;;;;;;4985026;28;20249;-72
2022/05/16 04:35:11;;;;;;;2.72;2.53;;;17.50;99.20;;;;;;4986006;28;20202;-72
2022/05/16 04:37:39;;;;;;;9.00;3.13;;;17.50;99.00;;;;;;4994212;28;20281;-73
2022/05/16 04:40:10;;;;;;;3.45;3.10;;;17.50;99.30;;;;;;5002365;28;20285;-72
2022/05/16 04:42:43;;;;;;;4.80;2.97;;;17.50;99.50;;;;;;4991300;28;20202;-71
2022/05/16 04:45:17;;;;;;;5.13;2.67;;;17.50;99.50;;;;;;4994804;28;20209;-71
2022/05/16 04:47:50;;;;;;;3.78;2.58;;;17.60;99.80;;;;;;4976102;28;20226;-70
2022/05/16 04:50:21;;;;;;;5.70;2.40;;;17.40;99.90;;;;;;4977344;28;20238;-70
2022/05/16 04:52:49;;;;;;;3.90;2.72;;;17.40;99.90;;;;;;4978892;28;20217;-69
2022/05/16 04:55:17;;;;;;;4.90;3.25;;;17.40;99.90;;;;;;4978389;28;20224;-69
2022/05/16 04:57:46;;;;;;;3.63;3.15;;;17.50;99.90;;;;;;4972705;28;20335;-69
2022/05/16 05:00:18;;;;;;;4.75;2.80;;;17.50;99.90;;;;;;4976794;28;21067;-71
2022/05/16 05:02:46;;;;;;;3.75;2.75;;;17.50;99.90;;;;;;4970798;28;20359;-69
2022/05/16 05:05:16;;;;;;;3.10;2.80;;;17.50;99.90;;;;;;4977318;28;20296;-70
2022/05/16 05:07:45;;;;;;;4.18;3.05;;;17.50;99.90;;;;;;4975562;28;20315;-69
2022/05/16 05:15:50;;;;;;;5.70;3.50;;;17.50;99.90;;;;;;4978745;28;21561;-69
2022/05/16 05:18:18;;;;;;;6.28;3.35;;;17.50;99.90;;;;;;4973910;28;21009;-70
2022/05/16 05:20:46;;;;;;;5.93;3.45;;;17.60;99.90;;;;;;4975536;28;20241;-70
2022/05/16 05:23:14;;;;;;;5.68;3.35;;;17.60;99.90;;;;;;4976400;28;20217;-69
2022/05/16 05:25:42;;;;;;;3.40;3.10;;;17.70;99.90;;;;;;4977691;28;20296;-69
2022/05/16 05:28:09;;;;;;;7.60;3.00;;;17.80;99.90;;;;;;4972786;28;20647;-69
2022/05/16 05:30:37;;;;;;;4.63;2.90;;;18.00;99.90;;;;;;4977803;28;20198;-69
2022/05/16 05:33:07;;;;;;;4.80;3.10;;;18.10;99.90;;;;;;4975452;28;20194;-69
2022/05/16 05:35:35;;;;;;;7.18;2.85;;;18.20;99.90;;;;;;4978316;28;20221;-69
2022/05/16 05:38:03;;;;;;;4.53;3.05;;;18.30;99.90;;;;;;4967714;28;20246;-70
2022/05/16 05:40:31;;;;;;;5.90;3.08;;;18.30;99.90;;;;;;4972482;28;20206;-71
2022/05/16 05:43:03;;;;;;;7.38;3.38;;;18.30;99.90;;;;;;4976334;28;20438;-71
2022/05/16 05:45:31;;;;;;;8.02;2.92;;;18.30;99.50;;;;;;4972222;28;20381;-70
2022/05/16 05:47:59;;;;;;;5.57;3.40;;;18.30;99.90;;;;;;4973715;28;20226;-69
2022/05/16 05:50:28;;;;;;;6.22;3.20;;;18.30;99.90;;;;;;4977983;28;20225;-70
2022/05/16 05:52:56;;;;;;;5.95;3.10;;;18.30;99.90;;;;;;4977392;28;20242;-70
2022/05/16 05:55:24;;;;;;;4.18;3.20;;;18.20;99.90;;;;;;4976206;28;20202;-70
2022/05/16 05:57:52;;;;;;;5.70;3.65;;;18.20;99.90;;;;;;4971842;28;20757;-71
2022/05/16 06:00:20;;;;;;;5.35;3.50;;;18.20;99.90;;;;;;4974114;28;20774;-71
2022/05/16 06:02:48;;;;;;;5.50;3.10;;;18.20;99.90;;;;;;4974832;28;20327;-71
2022/05/16 06:05:18;;;;;;;6.65;3.00;;;18.30;99.90;;;;;;4976425;28;20324;-71
2022/05/16 06:07:48;;;;;;;6.72;3.63;;;18.30;99.90;;;;;;4973430;28;20230;-72
2022/05/16 06:10:16;;;;;;;6.00;3.00;;;18.30;99.90;;;;;;4977274;28;20321;-70
2022/05/16 06:12:44;;;;;;;4.57;3.15;;;18.30;99.90;;;;;;4976879;28;20252;-70
2022/05/16 06:15:14;;;;;;;4.35;3.00;;;18.30;99.90;;;;;;4977525;28;20210;-71
2022/05/16 06:17:43;;;;;;;6.03;3.33;;;18.30;99.90;;;;;;4972500;28;20236;-71
2022/05/16 06:20:13;;;;;;;9.27;3.45;;;18.20;99.90;;;;;;4985647;28;20242;-72
2022/05/16 06:22:41;;;;;;;9.70;4.47;;;18.20;99.90;;;;;;4986852;28;20245;-74
2022/05/16 06:27:58;;;;;;;7.63;3.78;;;17.90;99.90;;;;;;4997877;28;20253;-70
2022/05/16 06:30:27;;;;;;;7.20;3.78;;;17.90;99.90;;;;;;4992218;28;20204;-71
2022/05/16 06:32:55;;;;;;;7.53;3.97;;;18.00;99.90;;;;;;4993132;28;20570;-72
2022/05/16 06:35:23;;;;;;;7.22;2.92;;;18.00;99.90;;;;;;4996005;28;20212;-72
2022/05/16 06:37:52;;;;;;;6.55;4.15;;;18.20;99.90;;;;;;4991075;28;20659;-72
2022/05/16 06:40:22;;;;;;;5.00;3.08;;;18.30;99.90;;;;;;4991048;28;20225;-72
2022/05/16 06:42:50;;;;;;;7.40;4.65;;;18.40;99.90;;;;;;4990376;28;20202;-72
2022/05/16 06:45:18;;;;;;;4.13;3.05;;;18.40;99.90;;;;;;4991012;28;20240;-72
2022/05/16 06:47:46;;;;;;;6.82;3.78;;;18.50;99.90;;;;;;4990588;28;20646;-71
2022/05/16 06:50:14;;;;;;;10.27;3.30;;;18.50;99.90;;;;;;4990992;28;20655;-72
2022/05/16 06:52:43;;;;;;;8.50;3.75;;;18.70;99.90;;;;;;4991662;28;20237;-72
2022/05/16 06:55:11;;;;;;;6.63;3.40;;;18.80;99.90;;;;;;4994563;28;20202;-72
2022/05/16 06:57:40;;;;;;;4.80;3.65;;;19.00;99.90;;;;;;4993940;28;20295;-69
2022/05/16 07:00:15;;;;;;;5.93;3.97;;;19.00;99.90;;;;;;4994333;28;20205;-72
2022/05/16 07:02:44;;;;;;;8.80;4.25;;;19.10;99.90;;;;;;4993103;28;20642;-72
2022/05/16 07:05:33;;;;;;;9.27;3.83;;;19.10;99.90;;;;;;4994553;28;20656;-72
2022/05/16 07:08:01;;;;;;;5.95;3.80;;;19.10;99.90;;;;;;4994379;28;20284;-70
2022/05/16 07:10:29;;;;;;;8.60;4.10;;;19.20;99.90;;;;;;4994096;28;20237;-72
2022/05/16 07:12:58;;;;;;;4.30;3.35;;;19.40;99.90;;;;;;4993357;28;20241;-71
2022/05/16 07:15:27;;;;;;;7.13;3.92;;;19.50;99.90;;;;;;4994102;28;20219;-71
2022/05/16 07:17:55;;;;;;;4.72;3.58;;;19.60;99.90;;;;;;4993615;28;20252;-71
2022/05/16 07:20:22;;;;;;;7.57;3.50;;;19.60;99.60;;;;;;4993849;28;20206;-71
2022/05/16 07:22:50;;;;;;;11.30;3.50;;;19.70;99.90;;;;;;4993379;28;20237;-71
2022/05/16 07:25:25;;;;;;;5.97;3.38;;;19.80;99.10;;;;;;4994001;28;20294;-72
2022/05/16 07:27:59;;;;;;;7.40;3.80;;;19.80;98.70;;;;;;4993658;28;20569;-71
2022/05/16 07:30:31;;;;;;;6.70;3.10;;;20.00;99.20;;;;;;4988644;28;20237;-71
2022/05/16 07:33:00;;;;;;;5.57;3.60;;;20.00;99.00;;;;;;4992846;28;20233;-71
2022/05/16 07:35:30;;;;;;;9.40;4.40;;;20.20;99.20;;;;;;4998981;28;20221;-71
2022/05/16 07:37:59;;;;;;;6.32;4.22;;;20.30;98.50;;;;;;4993275;28;20257;-71
2022/05/16 07:40:30;;;;;;;6.93;4.20;;;20.40;99.10;;;;;;4993804;28;20575;-72
2022/05/16 07:42:58;;;;;;;7.93;3.67;;;20.50;98.40;;;;;;4992988;28;20202;-70
2022/05/16 07:45:26;;;;;;;4.28;3.30;;;20.70;98.20;;;;;;4993704;28;20257;-70
2022/05/16 07:47:56;;;;;;;3.70;3.00;;;20.80;97.20;;;;;;4993123;28;20649;-72
2022/05/16 07:50:24;;;;;;;7.50;3.33;;;20.90;97.40;;;;;;4993380;28;20253;-71
2022/05/16 07:52:52;;;;;;;4.95;3.60;;;21.00;97.30;;;;;;4993032;28;20415;-71
2022/05/16 07:55:23;;;;;;;6.32;3.67;;;21.10;97.20;;;;;;4993402;28;20626;-71
2022/05/16 07:57:51;;;;;;;3.95;3.30;;;21.20;97.10;;;;;;4993101;28;20304;-71
2022/05/16 08:00:21;;;;;;;6.72;3.70;;;21.40;97.50;;;;;;4993332;28;20206;-71
2022/05/16 08:02:50;;;;;;;8.65;3.95;;;21.40;96.90;;;;;;4992104;28;20208;-70
2022/05/16 08:05:21;;;;;;;11.88;3.38;;;21.40;97.00;;;;;;4991879;28;20202;-72
2022/05/16 08:10:49;;;;;;;6.85;4.40;;;21.40;96.90;;;;;;4932739;29;20444;-71
2022/05/16 08:13:17;;;;;;;5.57;4.05;;;21.20;97.30;;;;;;4932072;29;20204;-71
2022/05/16 08:15:45;;;;;;;7.00;3.72;;;21.10;97.60;;;;;;4959932;28;20280;-68
2022/05/16 08:18:13;;;;;;;9.05;4.15;;;21.20;98.30;;;;;;4992443;28;20257;-71
2022/05/16 08:20:46;;;;;;;5.13;3.47;;;21.50;98.00;;;;;;4992931;28;20233;-71
2022/05/16 08:23:16;;;;;;;6.22;3.40;;;21.80;97.70;;;;;;4992179;28;20221;-71
2022/05/16 08:25:45;;;;;;;9.45;3.53;;;22.10;97.30;;;;;;4992879;28;20242;-71
2022/05/16 08:28:15;;;;;;;6.40;3.97;;;22.40;97.30;;;;;;4992502;28;20280;-70
2022/05/16 08:30:43;;;;;;;9.80;4.35;;;22.70;96.80;;;;;;4992758;28;20267;-72
2022/05/16 08:33:11;;;;;;;5.72;3.28;;;22.80;96.80;;;;;;4988757;28;20300;-71
2022/05/16 08:35:39;;;;;;;7.00;4.10;;;23.00;96.20;;;;;;4997582;28;20264;-69
2022/05/16 08:40:58;;;;;;;13.55;4.30;;;23.20;96.80;;;;;;4992547;28;20733;-71
2022/05/16 08:43:47;;;;;;;11.38;4.25;;;23.30;96.30;;;;;;4974586;28;20234;-72
2022/05/16 08:46:27;;;;;;;6.50;4.07;;;23.50;97.20;;;;;;4992542;28;20210;-71
2022/05/16 08:48:59;;;;;;;4.60;3.25;;;23.60;97.20;;;;;;4991635;28;20296;-70
2022/05/16 08:51:31;;;;;;;8.40;3.92;;;24.00;96.90;;;;;;4992527;28;20221;-72
2022/05/16 08:54:06;;;;;;;3.97;3.58;;;24.20;95.50;;;;;;4991875;28;20625;-71
2022/05/16 08:56:38;;;;;;;9.13;3.30;;;24.40;95.70;;;;;;4992260;28;20240;-71
2022/05/16 08:59:08;;;;;;;7.45;4.13;;;24.40;95.20;;;;;;4992721;28;20709;-72
2022/05/16 09:01:41;;;;;;;7.28;3.55;;;24.70;95.20;;;;;;4986051;28;20229;-71
2022/05/16 09:04:14;;;;;;;7.13;4.45;;;24.90;95.40;;;;;;4991314;28;20606;-72
2022/05/16 09:06:57;;;;;;;6.50;3.75;;;25.30;95.60;;;;;;4992061;28;20260;-72
2022/05/16 09:09:37;;;;;;;6.82;4.05;;;25.50;94.20;;;;;;4991759;28;20269;-72
2022/05/16 09:12:12;;;;;;;5.65;3.92;;;25.60;94.70;;;;;;4991446;28;20268;-72
2022/05/16 09:14:54;;;;;;;7.25;3.00;;;25.70;93.60;;;;;;4991987;28;20236;-72
2022/05/16 09:17:30;;;;;;;6.65;3.45;;;26.10;95.30;;;;;;4991934;28;20202;-76
2022/05/16 09:20:10;;;;;;;6.45;4.00;;;26.10;93.90;;;;;;4991729;28;20311;-72
2022/05/16 09:22:44;;;;;;;7.68;4.53;;;26.00;93.60;;;;;;4991468;28;20248;-71
2022/05/16 09:25:19;;;;;;;4.68;3.67;;;26.10;93.50;;;;;;4991944;28;20230;-72
2022/05/16 09:30:45;;;;;;;5.15;4.07;;;26.60;93.90;;;;;;4991384;28;20237;-72
2022/05/16 09:33:18;;;;;;;6.25;3.85;;;26.60;93.00;;;;;;4987872;28;20657;-72
2022/05/16 09:35:53;;;;;;;5.53;3.60;;;26.60;93.40;;;;;;4996755;28;20348;-71
2022/05/16 09:38:22;;;;;;;6.97;4.10;;;27.10;93.70;;;;;;4991537;28;20225;-72
2022/05/16 09:41:07;;;;;;;5.82;4.03;;;27.30;93.30;;;;;;4991828;28;20301;-72
2022/05/16 09:43:41;;;;;;;4.72;3.88;;;27.60;92.60;;;;;;4985695;28;20632;-71
2022/05/16 09:46:22;;;;;;;6.93;3.83;;;27.90;92.20;;;;;;4991335;28;20240;-72
2022/05/16 09:49:02;;;;;;;8.30;4.20;;;28.00;91.80;;;;;;4991538;28;20753;-74
2022/05/16 09:51:30;;;;;;;4.68;4.28;;;28.00;92.00;;;;;;4991369;28;20441;-72
2022/05/16 09:54:18;;;;;;;4.88;4.32;;;27.80;92.60;;;;;;4990697;28;20210;-75
2022/05/16 09:57:22;;;;;;;6.20;4.50;;;27.60;93.10;;;;;;4991534;28;20237;-73
2022/05/16 09:59:53;;;;;;;6.35;3.63;;;27.90;93.10;;;;;;4912127;29;20263;-73
2022/05/16 10:02:35;;;;;;;5.70;4.20;;;28.00;92.60;;;;;;4980070;28;20629;-73
2022/05/16 10:05:24;;;;;;;6.97;3.78;;;28.40;92.20;;;;;;4991257;28;20293;-73
2022/05/16 10:07:59;;;;;;;4.60;3.78;;;28.40;92.40;;;;;;4991656;28;20226;-75
2022/05/16 10:10:32;;;;;;;4.68;3.55;;;28.60;92.50;;;;;;4991435;28;20654;-73
2022/05/16 10:13:01;;;;;;;4.18;3.70;;;28.90;92.30;;;;;;4990814;28;20261;-76
2022/05/16 10:15:31;;;;;;;7.78;3.50;;;29.50;92.20;;;;;;4984954;28;20248;-74
2022/05/16 10:18:06;;;;;;;8.23;3.83;;;29.70;91.50;;;;;;4985704;28;20249;-72
2022/05/16 10:20:39;;;;;;;8.25;4.00;;;29.50;91.90;;;;;;4991147;28;20364;-74
2022/05/16 10:23:13;;;;;;;6.47;4.38;;;29.40;91.90;;;;;;4990599;28;20209;-72
2022/05/16 10:25:44;;;;;;;5.45;3.58;;;29.40;91.70;;;;;;4991117;28;20273;-75
2022/05/16 10:28:17;;;;;;;4.50;3.45;;;29.40;91.70;;;;;;4993412;28;20264;-73
2022/05/16 10:33:36;;;;;;;5.70;3.35;;;29.30;90.80;;;;;;4992747;28;20202;-73
2022/05/16 10:36:07;;;;;;;9.02;3.78;;;29.70;91.40;;;;;;4993607;28;20740;-72
2022/05/16 10:38:39;;;;;;;7.30;3.92;;;29.40;90.50;;;;;;4994844;28;20587;-73
2022/05/16 10:41:11;;;;;;;5.50;4.03;;;29.20;90.90;;;;;;4975480;28;20329;-73
2022/05/16 10:43:57;;;;;;;6.50;3.65;;;29.00;91.30;;;;;;4974763;28;20233;-72
2022/05/16 10:46:29;;;;;;;4.38;3.97;;;29.00;91.30;;;;;;4975463;28;20238;-73
2022/05/16 10:49:03;;;;;;;4.43;3.97;;;28.50;91.50;;;;;;4975182;28;20230;-72
2022/05/16 10:51:40;;;;;;;6.10;4.15;;;28.00;92.70;;;;;;4975270;28;20241;-72
2022/05/16 10:54:12;;;;;;;9.45;4.15;;;27.80;92.50;;;;;;4974110;28;20206;-72
2022/05/16 10:56:49;;;;;;;3.92;3.45;;;27.50;93.00;;;;;;4974682;28;20237;-77
2022/05/16 10:59:32;;;;;;;4.45;3.50;;;27.40;93.30;;;;;;4974752;28;20238;-73
2022/05/16 11:02:05;;;;;;;7.10;4.32;;;27.40;93.20;;;;;;4974448;28;20203;-73
2022/05/16 11:04:57;;;;;;;5.38;3.42;;;27.40;93.50;;;;;;4974468;28;20253;-72
2022/05/16 11:07:33;;;;;;;6.60;3.90;;;27.80;93.40;;;;;;4974943;28;20211;-73
2022/05/16 11:10:07;;;;;;;7.28;4.60;;;28.30;93.20;;;;;;4975083;28;20611;-73
2022/05/16 11:12:43;;;;;;;4.05;3.65;;;28.70;93.20;;;;;;4974017;28;20236;-73
2022/05/16 11:15:27;;;;;;;3.55;3.17;;;29.00;92.90;;;;;;4974737;28;20284;-72
2022/05/16 11:18:01;;;;;;;7.30;3.78;;;29.70;93.00;;;;;;4968267;28;20317;-73
2022/05/16 11:20:36;;;;;;;4.43;3.75;;;30.30;91.70;;;;;;4974528;28;20273;-73
2022/05/16 11:23:17;;;;;;;5.20;3.83;;;30.60;91.90;;;;;;4973928;28;20229;-73
2022/05/16 11:25:51;;;;;;;4.95;3.80;;;30.90;91.10;;;;;;4974330;28;20238;-71
2022/05/16 11:28:28;;;;;;;4.70;3.65;;;30.60;91.50;;;;;;4974468;28;20708;-74
2022/05/16 11:31:01;;;;;;;7.55;3.65;;;30.20;91.10;;;;;;4974447;28;20617;-73
2022/05/16 11:33:37;;;;;;;5.10;3.72;;;29.80;91.50;;;;;;4970613;28;20207;-73
2022/05/16 11:36:11;;;;;;;6.28;4.60;;;29.50;92.40;;;;;;4973810;28;20265;-73
2022/05/16 11:39:02;;;;;;;10.65;4.38;;;28.90;93.60;;;;;;4973921;28;20377;-73
2022/05/16 11:41:42;;;;;;;7.18;4.50;;;28.20;96.30;;;;;;4974260;28;20787;-73
2022/05/16 11:44:27;;;;;;;10.32;4.68;;;27.00;98.20;;;;;;4973637;28;20305;-73
2022/05/16 11:47:08;;;;;;;22.25;5.55;;;26.00;97.70;;;;;;4973999;28;20579;-73
2022/05/16 11:50:01;;;;;;;13.55;4.50;;;24.30;99.90;;;;;;4974290;28;20202;-73
2022/05/16 11:52:57;;;;;;;12.90;4.53;;;22.80;99.90;;;;;;4973258;28;20207;-75
2022/05/16 12:01:05;;;;;;;8.40;3.08;;;21.30;99.90;;;;;;4974067;28;20765;-74
2022/05/16 12:03:37;;;;;;;3.90;2.13;;;21.30;99.90;;;;;;4973058;28;20230;-74
2022/05/16 12:06:24;;;;;;;4.35;2.95;;;21.30;99.90;;;;;;4976305;28;20234;-74
2022/05/16 12:09:15;;;;;;;4.22;2.75;;;21.40;99.90;;;;;;4968913;28;20250;-77
2022/05/16 12:11:53;;;;;;;5.28;2.92;;;21.80;99.90;;;;;;4973839;28;20672;-74
2022/05/16 12:14:29;;;;;;;9.98;4.30;;;22.50;99.90;;;;;;4973585;28;20230;-74
2022/05/16 12:17:00;;;;;;;5.88;3.60;;;23.20;99.90;;;;;;4968076;28;20307;-74
2022/05/16 12:19:37;;;;;;;6.63;3.85;;;23.90;99.90;;;;;;4973527;28;20230;-73
2022/05/16 12:22:08;;;;;;;8.38;3.83;;;24.80;99.90;;;;;;4973098;28;20240;-75
2022/05/16 12:25:08;;;;;;;4.28;3.67;;;25.70;99.90;;;;;;4973548;28;20198;-74
2022/05/16 12:27:40;;;;;;;7.80;4.20;;;26.00;99.90;;;;;;4962965;28;20231;-75
2022/05/16 12:30:10;;;;;;;5.53;3.13;;;26.60;99.90;;;;;;4973468;28;20232;-75
2022/05/16 12:32:54;;;;;;;4.20;3.80;;;27.00;99.90;;;;;;4972710;28;20302;-77
2022/05/16 12:35:41;;;;;;;8.88;3.50;;;27.30;99.90;;;;;;4972982;28;20210;-73
2022/05/16 12:38:13;;;;;;;6.00;3.78;;;27.70;99.90;;;;;;4973001;28;20720;-74
2022/05/16 12:41:14;;;;;;;6.90;4.15;;;28.30;99.90;;;;;;4973284;28;20223;-74
2022/05/16 12:44:01;;;;;;;4.97;3.63;;;28.60;99.90;;;;;;4972522;28;20206;-73
2022/05/16 12:46:55;;;;;;;6.03;3.03;;;28.70;99.90;;;;;;4949571;28;20225;-74
2022/05/16 12:49:44;;;;;;;9.65;3.80;;;29.10;99.90;;;;;;4972729;28;20227;-74
2022/05/16 12:52:44;;;;;;;9.48;3.33;;;29.10;99.90;;;;;;4972437;28;20203;-73
2022/05/16 12:55:31;;;;;;;5.10;3.08;;;28.70;99.90;;;;;;4970523;28;20588;-76
2022/05/16 12:58:09;;;;;;;5.30;2.33;;;28.70;99.90;;;;;;4966367;28;21131;-74
2022/05/16 13:00:46;;;;;;;6.07;2.67;;;28.60;99.10;;;;;;4972993;28;20253;-75
2022/05/16 13:03:24;;;;;;;4.90;2.10;;;28.60;99.90;;;;;;4971994;28;20233;-74
2022/05/16 13:05:59;;;;;;;4.88;2.00;;;28.30;98.70;;;;;;4974458;28;20206;-73
2022/05/16 13:08:50;;;;;;;4.95;2.35;;;28.10;99.70;;;;;;4967007;28;20755;-73
2022/05/16 13:11:27;;;;;;;4.32;2.75;;;27.90;99.20;;;;;;4972585;28;20350;-73
2022/05/16 13:14:06;;;;;;;4.20;2.00;;;27.80;98.60;;;;;;4971927;28;20718;-73
2022/05/16 13:16:36;;;;;;;3.85;2.15;;;27.40;99.10;;;;;;4972761;28;20246;-73
2022/05/16 13:19:10;;;;;;;4.05;2.38;;;27.40;98.80;;;;;;4972829;28;20253;-74
2022/05/16 13:21:42;;;;;;;6.82;2.90;;;27.10;97.40;;;;;;4972444;28;20647;-73
2022/05/16 13:24:14;;;;;;;9.57;2.97;;;26.70;98.20;;;;;;4972070;28;20213;-73
2022/05/16 13:29:55;;;;;;;4.68;1.75;;;26.30;99.20;;;;;;4971343;28;20643;-74
2022/05/16 13:32:30;;;;;;;5.60;1.63;;;26.30;99.20;;;;;;4971843;28;20663;-73
2022/05/16 13:34:59;;;;;;;6.72;2.50;;;26.30;98.60;;;;;;4971662;28;20206;-74
2022/05/16 13:37:30;;;;;;;5.43;2.45;;;26.20;99.00;;;;;;4968806;28;20269;-74
2022/05/16 13:40:02;;;;;;;4.90;2.10;;;26.20;99.00;;;;;;4972238;28;20687;-73
2022/05/16 13:42:33;;;;;;;5.97;1.52;;;26.20;98.20;;;;;;4971677;28;20231;-72
2022/05/16 13:45:02;;;;;;;5.03;2.25;;;26.30;98.20;;;;;;4972361;28;20206;-74
2022/05/16 13:47:32;;;;;;;4.90;2.47;;;26.90;98.40;;;;;;4972043;28;20214;-74